sensor_id;sensor_type;location;lat;lon;timestamp;P1;durP1;ratioP1;P2;durP2;ratioP2
75506;SDS011;64086;43.220;27.878;2023-08-08T00:01:49;12.00;;;4.82;;
75506;SDS011;64086;43.220;27.878;2023-08-08T00:04:15;16.42;;;5.20;;
75506;SDS011;64086;43.220;27.878;2023-08-08T00:06:40;9.68;;;5.15;;
75506;SDS011;64086;43.220;27.878;2023-08-08T00:09:06;11.77;;;6.53;;
75506;SDS011;64086;43.220;27.878;2023-08-08T00:11:32;11.60;;;6.35;;
75506;SDS011;64086;43.220;27.878;2023-08-08T00:13:57;13.57;;;7.20;;
75506;SDS011;64086;43.220;27.878;2023-08-08T00:16:22;18.13;;;7.85;;
75506;SDS011;64086;43.220;27.878;2023-08-08T00:18:48;11.90;;;7.82;;
75506;SDS011;64086;43.220;27.878;2023-08-08T00:21:18;10.48;;;5.30;;
75506;SDS011;64086;43.220;27.878;2023-08-08T00:23:44;7.32;;;3.40;;
75506;SDS011;64086;43.220;27.878;2023-08-08T00:26:10;7.65;;;3.45;;
75506;SDS011;64086;43.220;27.878;2023-08-08T00:28:35;3.22;;;1.52;;
75506;SDS011;64086;43.220;27.878;2023-08-08T00:31:01;6.75;;;3.35;;
75506;SDS011;64086;43.220;27.878;2023-08-08T00:33:26;11.50;;;6.00;;
75506;SDS011;64086;43.220;27.878;2023-08-08T00:35:52;13.00;;;5.80;;
75506;SDS011;64086;43.220;27.878;2023-08-08T00:38:17;12.77;;;6.43;;
75506;SDS011;64086;43.220;27.878;2023-08-08T00:40:44;11.18;;;6.45;;
75506;SDS011;64086;43.220;27.878;2023-08-08T00:43:09;8.80;;;5.88;;
75506;SDS011;64086;43.220;27.878;2023-08-08T00:45:35;13.75;;;7.22;;
75506;SDS011;64086;43.220;27.878;2023-08-08T00:48:01;7.80;;;5.32;;
75506;SDS011;64086;43.220;27.878;2023-08-08T00:50:26;8.75;;;5.10;;
75506;SDS011;64086;43.220;27.878;2023-08-08T00:52:51;6.93;;;4.63;;
75506;SDS011;64086;43.220;27.878;2023-08-08T00:55:17;10.20;;;5.82;;
75506;SDS011;64086;43.220;27.878;2023-08-08T00:57:43;9.85;;;4.65;;
75506;SDS011;64086;43.220;27.878;2023-08-08T01:00:08;5.57;;;3.78;;
75506;SDS011;64086;43.220;27.878;2023-08-08T01:02:35;5.38;;;3.38;;
75506;SDS011;64086;43.220;27.878;2023-08-08T01:05:02;3.55;;;2.22;;
75506;SDS011;64086;43.220;27.878;2023-08-08T01:10:21;4.57;;;2.40;;
75506;SDS011;64086;43.220;27.878;2023-08-08T01:12:51;3.33;;;1.80;;
75506;SDS011;64086;43.220;27.878;2023-08-08T01:15:18;3.53;;;1.85;;
75506;SDS011;64086;43.220;27.878;2023-08-08T01:17:44;2.78;;;1.30;;
75506;SDS011;64086;43.220;27.878;2023-08-08T01:20:11;2.60;;;1.40;;
75506;SDS011;64086;43.220;27.878;2023-08-08T01:22:44;2.25;;;1.30;;
75506;SDS011;64086;43.220;27.878;2023-08-08T01:25:13;2.42;;;1.30;;
75506;SDS011;64086;43.220;27.878;2023-08-08T01:27:39;2.45;;;1.33;;
75506;SDS011;64086;43.220;27.878;2023-08-08T01:30:06;2.38;;;1.35;;
75506;SDS011;64086;43.220;27.878;2023-08-08T01:32:32;2.28;;;1.30;;
75506;SDS011;64086;43.220;27.878;2023-08-08T01:34:57;2.15;;;1.23;;
75506;SDS011;64086;43.220;27.878;2023-08-08T01:37:25;2.53;;;1.30;;
75506;SDS011;64086;43.220;27.878;2023-08-08T01:39:57;2.67;;;1.45;;
75506;SDS011;64086;43.220;27.878;2023-08-08T01:42:24;2.30;;;1.50;;
75506;SDS011;64086;43.220;27.878;2023-08-08T01:44:50;2.95;;;1.45;;
75506;SDS011;64086;43.220;27.878;2023-08-08T01:47:17;2.67;;;1.50;;
75506;SDS011;64086;43.220;27.878;2023-08-08T01:49:42;2.85;;;1.10;;
75506;SDS011;64086;43.220;27.878;2023-08-08T01:52:08;2.63;;;1.33;;
75506;SDS011;64086;43.220;27.878;2023-08-08T01:54:33;3.65;;;1.33;;
75506;SDS011;64086;43.220;27.878;2023-08-08T01:56:59;3.72;;;1.60;;
75506;SDS011;64086;43.220;27.878;2023-08-08T01:59:24;2.38;;;1.20;;
75506;SDS011;64086;43.220;27.878;2023-08-08T02:01:50;2.03;;;1.25;;
75506;SDS011;64086;43.220;27.878;2023-08-08T02:04:15;3.92;;;1.30;;
75506;SDS011;64086;43.220;27.878;2023-08-08T02:06:41;2.40;;;1.50;;
75506;SDS011;64086;43.220;27.878;2023-08-08T02:09:06;2.55;;;1.48;;
75506;SDS011;64086;43.220;27.878;2023-08-08T02:11:32;2.40;;;1.52;;
75506;SDS011;64086;43.220;27.878;2023-08-08T02:13:57;2.80;;;1.42;;
75506;SDS011;64086;43.220;27.878;2023-08-08T02:16:23;3.10;;;1.50;;
75506;SDS011;64086;43.220;27.878;2023-08-08T02:18:48;3.42;;;1.50;;
75506;SDS011;64086;43.220;27.878;2023-08-08T02:21:13;2.88;;;1.50;;
75506;SDS011;64086;43.220;27.878;2023-08-08T02:23:40;2.75;;;1.50;;
75506;SDS011;64086;43.220;27.878;2023-08-08T02:26:05;2.50;;;1.52;;
75506;SDS011;64086;43.220;27.878;2023-08-08T02:28:31;2.65;;;1.50;;
75506;SDS011;64086;43.220;27.878;2023-08-08T02:30:56;2.78;;;1.35;;
75506;SDS011;64086;43.220;27.878;2023-08-08T02:33:22;2.38;;;1.50;;
75506;SDS011;64086;43.220;27.878;2023-08-08T02:35:47;2.97;;;1.17;;
75506;SDS011;64086;43.220;27.878;2023-08-08T02:38:12;2.28;;;1.30;;
75506;SDS011;64086;43.220;27.878;2023-08-08T02:40:38;2.72;;;1.20;;
75506;SDS011;64086;43.220;27.878;2023-08-08T02:43:06;2.92;;;1.23;;
75506;SDS011;64086;43.220;27.878;2023-08-08T02:45:31;2.40;;;1.30;;
75506;SDS011;64086;43.220;27.878;2023-08-08T02:47:57;3.05;;;1.50;;
75506;SDS011;64086;43.220;27.878;2023-08-08T02:50:22;3.05;;;1.50;;
75506;SDS011;64086;43.220;27.878;2023-08-08T02:52:48;4.32;;;1.83;;
75506;SDS011;64086;43.220;27.878;2023-08-08T02:55:14;2.80;;;1.70;;
75506;SDS011;64086;43.220;27.878;2023-08-08T02:57:40;3.85;;;1.40;;
75506;SDS011;64086;43.220;27.878;2023-08-08T03:00:05;3.50;;;1.60;;
75506;SDS011;64086;43.220;27.878;2023-08-08T03:02:33;2.97;;;1.67;;
75506;SDS011;64086;43.220;27.878;2023-08-08T03:04:59;2.63;;;1.55;;
75506;SDS011;64086;43.220;27.878;2023-08-08T03:07:24;2.30;;;1.40;;
75506;SDS011;64086;43.220;27.878;2023-08-08T03:09:50;4.75;;;1.80;;
75506;SDS011;64086;43.220;27.878;2023-08-08T03:12:15;4.32;;;1.50;;
75506;SDS011;64086;43.220;27.878;2023-08-08T03:14:41;3.10;;;1.88;;
75506;SDS011;64086;43.220;27.878;2023-08-08T03:17:06;3.58;;;1.90;;
75506;SDS011;64086;43.220;27.878;2023-08-08T03:19:32;3.78;;;1.52;;
75506;SDS011;64086;43.220;27.878;2023-08-08T03:21:57;2.10;;;1.40;;
75506;SDS011;64086;43.220;27.878;2023-08-08T03:24:23;2.75;;;1.48;;
75506;SDS011;64086;43.220;27.878;2023-08-08T03:26:48;3.70;;;1.52;;
75506;SDS011;64086;43.220;27.878;2023-08-08T03:29:14;3.00;;;1.60;;
75506;SDS011;64086;43.220;27.878;2023-08-08T03:31:39;2.65;;;1.55;;
75506;SDS011;64086;43.220;27.878;2023-08-08T03:34:05;3.55;;;1.85;;
75506;SDS011;64086;43.220;27.878;2023-08-08T03:36:30;3.95;;;1.63;;
75506;SDS011;64086;43.220;27.878;2023-08-08T03:38:55;2.72;;;1.50;;
75506;SDS011;64086;43.220;27.878;2023-08-08T03:41:21;2.97;;;1.40;;
75506;SDS011;64086;43.220;27.878;2023-08-08T03:43:46;2.70;;;1.45;;
75506;SDS011;64086;43.220;27.878;2023-08-08T03:46:12;3.00;;;1.83;;
75506;SDS011;64086;43.220;27.878;2023-08-08T03:48:38;4.00;;;1.83;;
75506;SDS011;64086;43.220;27.878;2023-08-08T03:51:04;3.75;;;1.63;;
75506;SDS011;64086;43.220;27.878;2023-08-08T03:53:29;2.50;;;1.60;;
75506;SDS011;64086;43.220;27.878;2023-08-08T03:55:55;3.92;;;1.60;;
75506;SDS011;64086;43.220;27.878;2023-08-08T03:58:20;4.30;;;1.75;;
75506;SDS011;64086;43.220;27.878;2023-08-08T04:00:45;2.40;;;1.70;;
75506;SDS011;64086;43.220;27.878;2023-08-08T04:03:14;2.97;;;1.80;;
75506;SDS011;64086;43.220;27.878;2023-08-08T04:05:41;4.72;;;1.73;;
75506;SDS011;64086;43.220;27.878;2023-08-08T04:08:11;2.70;;;1.55;;
75506;SDS011;64086;43.220;27.878;2023-08-08T04:10:37;2.80;;;1.70;;
75506;SDS011;64086;43.220;27.878;2023-08-08T04:13:03;2.80;;;1.63;;
75506;SDS011;64086;43.220;27.878;2023-08-08T04:15:28;2.88;;;1.55;;
75506;SDS011;64086;43.220;27.878;2023-08-08T04:17:54;2.50;;;1.63;;
75506;SDS011;64086;43.220;27.878;2023-08-08T04:20:19;2.78;;;1.77;;
75506;SDS011;64086;43.220;27.878;2023-08-08T04:22:45;3.03;;;1.88;;
75506;SDS011;64086;43.220;27.878;2023-08-08T04:25:10;3.47;;;1.83;;
75506;SDS011;64086;43.220;27.878;2023-08-08T04:27:36;2.28;;;1.50;;
75506;SDS011;64086;43.220;27.878;2023-08-08T04:30:01;2.67;;;1.95;;
75506;SDS011;64086;43.220;27.878;2023-08-08T04:32:28;2.70;;;1.83;;
75506;SDS011;64086;43.220;27.878;2023-08-08T04:34:53;2.50;;;1.70;;
75506;SDS011;64086;43.220;27.878;2023-08-08T04:37:18;2.83;;;1.80;;
75506;SDS011;64086;43.220;27.878;2023-08-08T04:39:44;2.92;;;1.90;;
75506;SDS011;64086;43.220;27.878;2023-08-08T04:42:09;2.67;;;1.80;;
75506;SDS011;64086;43.220;27.878;2023-08-08T04:44:35;4.57;;;2.10;;
75506;SDS011;64086;43.220;27.878;2023-08-08T04:47:00;2.60;;;2.00;;
75506;SDS011;64086;43.220;27.878;2023-08-08T04:49:26;5.35;;;2.13;;
75506;SDS011;64086;43.220;27.878;2023-08-08T04:51:51;2.92;;;1.90;;
75506;SDS011;64086;43.220;27.878;2023-08-08T04:54:17;3.60;;;2.22;;
75506;SDS011;64086;43.220;27.878;2023-08-08T04:56:42;2.40;;;1.70;;
75506;SDS011;64086;43.220;27.878;2023-08-08T04:59:07;3.58;;;1.95;;
75506;SDS011;64086;43.220;27.878;2023-08-08T05:01:33;4.28;;;2.10;;
75506;SDS011;64086;43.220;27.878;2023-08-08T05:03:58;5.10;;;2.10;;
75506;SDS011;64086;43.220;27.878;2023-08-08T05:06:24;3.88;;;1.83;;
75506;SDS011;64086;43.220;27.878;2023-08-08T05:08:51;5.75;;;1.90;;
75506;SDS011;64086;43.220;27.878;2023-08-08T05:11:16;3.53;;;2.00;;
75506;SDS011;64086;43.220;27.878;2023-08-08T05:13:42;3.03;;;2.10;;
75506;SDS011;64086;43.220;27.878;2023-08-08T05:16:08;3.88;;;1.92;;
75506;SDS011;64086;43.220;27.878;2023-08-08T05:18:33;3.50;;;1.80;;
75506;SDS011;64086;43.220;27.878;2023-08-08T05:20:59;4.45;;;1.80;;
75506;SDS011;64086;43.220;27.878;2023-08-08T05:23:24;3.85;;;1.77;;
75506;SDS011;64086;43.220;27.878;2023-08-08T05:25:50;4.68;;;2.03;;
75506;SDS011;64086;43.220;27.878;2023-08-08T05:28:15;2.50;;;1.60;;
75506;SDS011;64086;43.220;27.878;2023-08-08T05:30:41;4.95;;;1.98;;
75506;SDS011;64086;43.220;27.878;2023-08-08T05:33:06;3.53;;;1.75;;
75506;SDS011;64086;43.220;27.878;2023-08-08T05:35:31;3.47;;;1.80;;
75506;SDS011;64086;43.220;27.878;2023-08-08T05:37:57;3.72;;;1.70;;
75506;SDS011;64086;43.220;27.878;2023-08-08T05:40:22;4.32;;;1.83;;
75506;SDS011;64086;43.220;27.878;2023-08-08T05:42:48;4.88;;;1.85;;
75506;SDS011;64086;43.220;27.878;2023-08-08T05:45:13;4.43;;;1.77;;
75506;SDS011;64086;43.220;27.878;2023-08-08T05:47:39;5.10;;;1.70;;
75506;SDS011;64086;43.220;27.878;2023-08-08T05:50:05;8.60;;;2.40;;
75506;SDS011;64086;43.220;27.878;2023-08-08T05:52:31;5.97;;;1.77;;
75506;SDS011;64086;43.220;27.878;2023-08-08T05:54:56;5.03;;;2.08;;
75506;SDS011;64086;43.220;27.878;2023-08-08T05:57:24;4.53;;;1.80;;
75506;SDS011;64086;43.220;27.878;2023-08-08T05:59:49;3.05;;;2.20;;
75506;SDS011;64086;43.220;27.878;2023-08-08T06:02:15;3.42;;;1.90;;
75506;SDS011;64086;43.220;27.878;2023-08-08T06:04:40;5.88;;;2.10;;
75506;SDS011;64086;43.220;27.878;2023-08-08T06:07:06;5.65;;;1.90;;
75506;SDS011;64086;43.220;27.878;2023-08-08T06:09:31;5.88;;;2.00;;
75506;SDS011;64086;43.220;27.878;2023-08-08T06:11:57;3.53;;;2.10;;
75506;SDS011;64086;43.220;27.878;2023-08-08T06:14:23;3.60;;;2.13;;
75506;SDS011;64086;43.220;27.878;2023-08-08T06:16:48;4.57;;;2.13;;
75506;SDS011;64086;43.220;27.878;2023-08-08T06:19:14;4.10;;;2.17;;
75506;SDS011;64086;43.220;27.878;2023-08-08T06:21:41;3.92;;;1.98;;
75506;SDS011;64086;43.220;27.878;2023-08-08T06:24:06;5.97;;;2.20;;
75506;SDS011;64086;43.220;27.878;2023-08-08T06:26:32;4.32;;;2.08;;
75506;SDS011;64086;43.220;27.878;2023-08-08T06:28:57;6.28;;;2.08;;
75506;SDS011;64086;43.220;27.878;2023-08-08T06:31:23;3.63;;;1.90;;
75506;SDS011;64086;43.220;27.878;2023-08-08T06:33:48;3.40;;;2.42;;
75506;SDS011;64086;43.220;27.878;2023-08-08T06:36:14;5.60;;;2.33;;
75506;SDS011;64086;43.220;27.878;2023-08-08T06:38:39;4.05;;;2.15;;
75506;SDS011;64086;43.220;27.878;2023-08-08T06:41:05;6.00;;;2.13;;
75506;SDS011;64086;43.220;27.878;2023-08-08T06:43:30;5.15;;;2.03;;
75506;SDS011;64086;43.220;27.878;2023-08-08T06:45:56;4.50;;;2.00;;
75506;SDS011;64086;43.220;27.878;2023-08-08T06:48:22;3.70;;;1.90;;
75506;SDS011;64086;43.220;27.878;2023-08-08T06:50:47;4.20;;;1.70;;
75506;SDS011;64086;43.220;27.878;2023-08-08T06:53:13;4.90;;;2.28;;
75506;SDS011;64086;43.220;27.878;2023-08-08T06:55:38;3.83;;;1.80;;
75506;SDS011;64086;43.220;27.878;2023-08-08T06:58:04;3.65;;;2.00;;
75506;SDS011;64086;43.220;27.878;2023-08-08T07:00:29;3.50;;;1.90;;
75506;SDS011;64086;43.220;27.878;2023-08-08T07:02:55;4.32;;;2.20;;
75506;SDS011;64086;43.220;27.878;2023-08-08T07:05:20;3.28;;;1.88;;
75506;SDS011;64086;43.220;27.878;2023-08-08T07:07:48;3.40;;;1.80;;
75506;SDS011;64086;43.220;27.878;2023-08-08T07:10:17;3.20;;;2.10;;
75506;SDS011;64086;43.220;27.878;2023-08-08T07:12:43;2.97;;;1.98;;
75506;SDS011;64086;43.220;27.878;2023-08-08T07:15:09;3.28;;;2.00;;
75506;SDS011;64086;43.220;27.878;2023-08-08T07:17:34;2.67;;;1.80;;
75506;SDS011;64086;43.220;27.878;2023-08-08T07:20:00;2.55;;;1.88;;
75506;SDS011;64086;43.220;27.878;2023-08-08T07:22:25;3.38;;;2.08;;
75506;SDS011;64086;43.220;27.878;2023-08-08T07:24:51;4.05;;;1.80;;
75506;SDS011;64086;43.220;27.878;2023-08-08T07:27:16;3.80;;;1.75;;
75506;SDS011;64086;43.220;27.878;2023-08-08T07:29:42;2.50;;;1.98;;
75506;SDS011;64086;43.220;27.878;2023-08-08T07:32:07;2.85;;;2.05;;
75506;SDS011;64086;43.220;27.878;2023-08-08T07:34:33;2.50;;;1.95;;
75506;SDS011;64086;43.220;27.878;2023-08-08T07:36:59;3.75;;;1.83;;
75506;SDS011;64086;43.220;27.878;2023-08-08T07:39:24;4.38;;;2.08;;
75506;SDS011;64086;43.220;27.878;2023-08-08T07:41:50;3.10;;;1.92;;
75506;SDS011;64086;43.220;27.878;2023-08-08T07:44:16;2.97;;;1.90;;
75506;SDS011;64086;43.220;27.878;2023-08-08T07:46:42;3.85;;;1.90;;
75506;SDS011;64086;43.220;27.878;2023-08-08T07:49:07;2.97;;;1.88;;
75506;SDS011;64086;43.220;27.878;2023-08-08T07:51:34;5.10;;;2.05;;
75506;SDS011;64086;43.220;27.878;2023-08-08T07:54:00;3.28;;;1.80;;
75506;SDS011;64086;43.220;27.878;2023-08-08T07:56:26;2.38;;;1.70;;
75506;SDS011;64086;43.220;27.878;2023-08-08T07:58:52;4.20;;;2.10;;
75506;SDS011;64086;43.220;27.878;2023-08-08T08:01:17;3.63;;;2.20;;
75506;SDS011;64086;43.220;27.878;2023-08-08T08:03:43;2.92;;;2.05;;
75506;SDS011;64086;43.220;27.878;2023-08-08T08:06:09;4.65;;;2.17;;
75506;SDS011;64086;43.220;27.878;2023-08-08T08:08:34;3.90;;;2.08;;
75506;SDS011;64086;43.220;27.878;2023-08-08T08:11:01;7.22;;;2.20;;
75506;SDS011;64086;43.220;27.878;2023-08-08T08:13:27;3.10;;;2.10;;
75506;SDS011;64086;43.220;27.878;2023-08-08T08:15:53;4.78;;;2.13;;
75506;SDS011;64086;43.220;27.878;2023-08-08T08:18:18;6.05;;;2.00;;
75506;SDS011;64086;43.220;27.878;2023-08-08T08:20:45;3.83;;;2.22;;
75506;SDS011;64086;43.220;27.878;2023-08-08T08:23:11;2.92;;;2.00;;
75506;SDS011;64086;43.220;27.878;2023-08-08T08:25:36;2.60;;;2.10;;
75506;SDS011;64086;43.220;27.878;2023-08-08T08:28:02;3.72;;;2.08;;
75506;SDS011;64086;43.220;27.878;2023-08-08T08:30:27;4.43;;;2.20;;
75506;SDS011;64086;43.220;27.878;2023-08-08T08:32:53;3.88;;;2.28;;
75506;SDS011;64086;43.220;27.878;2023-08-08T08:35:18;3.22;;;2.10;;
75506;SDS011;64086;43.220;27.878;2023-08-08T08:37:45;2.85;;;2.15;;
75506;SDS011;64086;43.220;27.878;2023-08-08T08:40:10;4.15;;;2.00;;
75506;SDS011;64086;43.220;27.878;2023-08-08T08:42:36;3.60;;;2.20;;
75506;SDS011;64086;43.220;27.878;2023-08-08T08:45:03;2.90;;;2.00;;
75506;SDS011;64086;43.220;27.878;2023-08-08T08:47:31;3.30;;;1.88;;
75506;SDS011;64086;43.220;27.878;2023-08-08T08:49:58;3.20;;;1.92;;
75506;SDS011;64086;43.220;27.878;2023-08-08T08:52:24;5.43;;;2.20;;
75506;SDS011;64086;43.220;27.878;2023-08-08T08:54:52;3.13;;;1.80;;
75506;SDS011;64086;43.220;27.878;2023-08-08T08:57:18;3.13;;;2.10;;
75506;SDS011;64086;43.220;27.878;2023-08-08T08:59:51;3.78;;;2.10;;
75506;SDS011;64086;43.220;27.878;2023-08-08T09:02:17;2.72;;;2.10;;
75506;SDS011;64086;43.220;27.878;2023-08-08T09:04:43;2.92;;;2.10;;
75506;SDS011;64086;43.220;27.878;2023-08-08T09:07:10;3.08;;;2.13;;
75506;SDS011;64086;43.220;27.878;2023-08-08T09:09:36;3.28;;;2.30;;
75506;SDS011;64086;43.220;27.878;2023-08-08T09:12:03;5.35;;;2.28;;
75506;SDS011;64086;43.220;27.878;2023-08-08T09:14:30;4.13;;;2.50;;
75506;SDS011;64086;43.220;27.878;2023-08-08T09:16:56;3.85;;;2.10;;
75506;SDS011;64086;43.220;27.878;2023-08-08T09:19:22;5.40;;;2.70;;
75506;SDS011;64086;43.220;27.878;2023-08-08T09:21:48;4.22;;;2.50;;
75506;SDS011;64086;43.220;27.878;2023-08-08T09:24:14;6.00;;;2.70;;
75506;SDS011;64086;43.220;27.878;2023-08-08T09:26:40;3.10;;;2.70;;
75506;SDS011;64086;43.220;27.878;2023-08-08T09:29:06;3.00;;;2.58;;
75506;SDS011;64086;43.220;27.878;2023-08-08T09:31:34;5.03;;;2.75;;
75506;SDS011;64086;43.220;27.878;2023-08-08T09:34:00;3.28;;;2.40;;
75506;SDS011;64086;43.220;27.878;2023-08-08T09:36:28;3.30;;;2.85;;
75506;SDS011;64086;43.220;27.878;2023-08-08T09:38:54;3.92;;;3.10;;
75506;SDS011;64086;43.220;27.878;2023-08-08T09:41:21;4.88;;;2.90;;
75506;SDS011;64086;43.220;27.878;2023-08-08T09:43:47;3.97;;;2.70;;
75506;SDS011;64086;43.220;27.878;2023-08-08T09:46:13;4.97;;;2.42;;
75506;SDS011;64086;43.220;27.878;2023-08-08T09:48:40;3.70;;;2.58;;
75506;SDS011;64086;43.220;27.878;2023-08-08T09:51:06;3.97;;;2.15;;
75506;SDS011;64086;43.220;27.878;2023-08-08T09:53:32;2.78;;;2.30;;
75506;SDS011;64086;43.220;27.878;2023-08-08T09:55:59;3.80;;;2.50;;
75506;SDS011;64086;43.220;27.878;2023-08-08T09:58:25;3.00;;;2.50;;
75506;SDS011;64086;43.220;27.878;2023-08-08T10:00:51;3.60;;;2.50;;
75506;SDS011;64086;43.220;27.878;2023-08-08T10:03:16;3.35;;;2.50;;
75506;SDS011;64086;43.220;27.878;2023-08-08T10:05:43;3.17;;;2.40;;
75506;SDS011;64086;43.220;27.878;2023-08-08T10:08:09;3.17;;;2.28;;
75506;SDS011;64086;43.220;27.878;2023-08-08T10:10:34;4.70;;;2.67;;
75506;SDS011;64086;43.220;27.878;2023-08-08T10:13:02;4.38;;;2.85;;
75506;SDS011;64086;43.220;27.878;2023-08-08T10:15:27;3.50;;;2.33;;
75506;SDS011;64086;43.220;27.878;2023-08-08T10:17:53;2.88;;;2.50;;
75506;SDS011;64086;43.220;27.878;2023-08-08T10:20:20;2.78;;;2.00;;
75506;SDS011;64086;43.220;27.878;2023-08-08T10:22:46;3.25;;;2.60;;
75506;SDS011;64086;43.220;27.878;2023-08-08T10:25:25;3.63;;;2.38;;
75506;SDS011;64086;43.220;27.878;2023-08-08T10:28:02;5.15;;;2.78;;
75506;SDS011;64086;43.220;27.878;2023-08-08T10:30:46;6.72;;;2.60;;
75506;SDS011;64086;43.220;27.878;2023-08-08T10:33:25;3.75;;;2.20;;
75506;SDS011;64086;43.220;27.878;2023-08-08T10:35:59;3.10;;;2.42;;
75506;SDS011;64086;43.220;27.878;2023-08-08T10:41:25;3.72;;;2.70;;
75506;SDS011;64086;43.220;27.878;2023-08-08T10:43:52;4.28;;;2.53;;
75506;SDS011;64086;43.220;27.878;2023-08-08T10:46:39;3.72;;;2.80;;
75506;SDS011;64086;43.220;27.878;2023-08-08T10:49:06;5.10;;;2.60;;
75506;SDS011;64086;43.220;27.878;2023-08-08T10:51:33;2.85;;;2.40;;
75506;SDS011;64086;43.220;27.878;2023-08-08T10:54:05;3.45;;;2.63;;
75506;SDS011;64086;43.220;27.878;2023-08-08T10:56:31;3.83;;;2.63;;
75506;SDS011;64086;43.220;27.878;2023-08-08T10:58:57;3.45;;;2.50;;
75506;SDS011;64086;43.220;27.878;2023-08-08T11:01:25;4.50;;;2.70;;
75506;SDS011;64086;43.220;27.878;2023-08-08T11:03:50;3.42;;;2.53;;
75506;SDS011;64086;43.220;27.878;2023-08-08T11:06:17;5.35;;;2.70;;
75506;SDS011;64086;43.220;27.878;2023-08-08T11:08:43;3.00;;;2.70;;
75506;SDS011;64086;43.220;27.878;2023-08-08T11:11:09;3.08;;;2.78;;
75506;SDS011;64086;43.220;27.878;2023-08-08T11:13:34;3.78;;;2.85;;
75506;SDS011;64086;43.220;27.878;2023-08-08T11:16:00;4.47;;;3.00;;
75506;SDS011;64086;43.220;27.878;2023-08-08T11:18:27;3.55;;;3.05;;
75506;SDS011;64086;43.220;27.878;2023-08-08T11:20:53;4.43;;;2.72;;
75506;SDS011;64086;43.220;27.878;2023-08-08T11:23:18;5.20;;;2.83;;
75506;SDS011;64086;43.220;27.878;2023-08-08T11:25:45;5.00;;;3.00;;
75506;SDS011;64086;43.220;27.878;2023-08-08T11:28:11;3.88;;;2.58;;
75506;SDS011;64086;43.220;27.878;2023-08-08T11:30:38;3.50;;;3.00;;
75506;SDS011;64086;43.220;27.878;2023-08-08T11:33:08;3.75;;;3.10;;
75506;SDS011;64086;43.220;27.878;2023-08-08T11:35:33;5.13;;;3.20;;
75506;SDS011;64086;43.220;27.878;2023-08-08T11:37:59;3.50;;;2.58;;
75506;SDS011;64086;43.220;27.878;2023-08-08T11:40:26;4.25;;;3.20;;
75506;SDS011;64086;43.220;27.878;2023-08-08T11:42:53;4.05;;;3.65;;
75506;SDS011;64086;43.220;27.878;2023-08-08T11:45:20;4.50;;;3.65;;
75506;SDS011;64086;43.220;27.878;2023-08-08T11:47:49;5.32;;;4.00;;
75506;SDS011;64086;43.220;27.878;2023-08-08T11:50:16;4.00;;;3.35;;
75506;SDS011;64086;43.220;27.878;2023-08-08T11:52:46;5.25;;;3.80;;
75506;SDS011;64086;43.220;27.878;2023-08-08T11:55:12;4.57;;;3.83;;
75506;SDS011;64086;43.220;27.878;2023-08-08T11:57:38;5.25;;;3.90;;
75506;SDS011;64086;43.220;27.878;2023-08-08T12:00:08;4.60;;;3.60;;
75506;SDS011;64086;43.220;27.878;2023-08-08T12:02:37;4.43;;;3.33;;
75506;SDS011;64086;43.220;27.878;2023-08-08T12:05:07;5.07;;;3.40;;
75506;SDS011;64086;43.220;27.878;2023-08-08T12:07:34;4.47;;;3.88;;
75506;SDS011;64086;43.220;27.878;2023-08-08T12:10:00;5.32;;;3.58;;
75506;SDS011;64086;43.220;27.878;2023-08-08T12:12:27;4.60;;;3.63;;
75506;SDS011;64086;43.220;27.878;2023-08-08T12:14:56;8.57;;;4.43;;
75506;SDS011;64086;43.220;27.878;2023-08-08T12:17:21;3.75;;;3.28;;
75506;SDS011;64086;43.220;27.878;2023-08-08T12:19:49;3.90;;;3.20;;
75506;SDS011;64086;43.220;27.878;2023-08-08T12:22:15;4.45;;;3.40;;
75506;SDS011;64086;43.220;27.878;2023-08-08T12:24:40;4.88;;;3.13;;
75506;SDS011;64086;43.220;27.878;2023-08-08T12:27:06;3.70;;;2.90;;
75506;SDS011;64086;43.220;27.878;2023-08-08T12:29:31;4.38;;;2.80;;
75506;SDS011;64086;43.220;27.878;2023-08-08T12:31:57;3.03;;;2.53;;
75506;SDS011;64086;43.220;27.878;2023-08-08T12:34:22;3.55;;;2.60;;
75506;SDS011;64086;43.220;27.878;2023-08-08T12:36:48;3.25;;;2.50;;
75506;SDS011;64086;43.220;27.878;2023-08-08T12:39:13;3.25;;;2.55;;
75506;SDS011;64086;43.220;27.878;2023-08-08T12:41:39;3.65;;;2.65;;
75506;SDS011;64086;43.220;27.878;2023-08-08T12:44:04;3.63;;;2.60;;
75506;SDS011;64086;43.220;27.878;2023-08-08T12:46:30;4.07;;;2.60;;
75506;SDS011;64086;43.220;27.878;2023-08-08T12:48:56;3.35;;;2.60;;
75506;SDS011;64086;43.220;27.878;2023-08-08T12:51:21;4.50;;;2.63;;
75506;SDS011;64086;43.220;27.878;2023-08-08T12:53:47;4.65;;;2.78;;
75506;SDS011;64086;43.220;27.878;2023-08-08T12:56:12;2.90;;;2.35;;
75506;SDS011;64086;43.220;27.878;2023-08-08T12:58:38;4.05;;;2.50;;
75506;SDS011;64086;43.220;27.878;2023-08-08T13:01:05;3.25;;;2.20;;
75506;SDS011;64086;43.220;27.878;2023-08-08T13:03:31;3.20;;;2.30;;
75506;SDS011;64086;43.220;27.878;2023-08-08T13:05:59;3.45;;;2.38;;
75506;SDS011;64086;43.220;27.878;2023-08-08T13:08:24;2.58;;;2.38;;
75506;SDS011;64086;43.220;27.878;2023-08-08T13:10:50;2.63;;;2.10;;
75506;SDS011;64086;43.220;27.878;2023-08-08T13:13:15;3.63;;;2.33;;
75506;SDS011;64086;43.220;27.878;2023-08-08T13:15:41;2.65;;;2.00;;
75506;SDS011;64086;43.220;27.878;2023-08-08T13:18:07;2.65;;;1.95;;
75506;SDS011;64086;43.220;27.878;2023-08-08T13:20:32;2.60;;;2.10;;
75506;SDS011;64086;43.220;27.878;2023-08-08T13:22:57;2.85;;;2.20;;
75506;SDS011;64086;43.220;27.878;2023-08-08T13:25:23;2.42;;;2.05;;
75506;SDS011;64086;43.220;27.878;2023-08-08T13:27:48;2.55;;;2.00;;
75506;SDS011;64086;43.220;27.878;2023-08-08T13:30:14;3.13;;;2.10;;
75506;SDS011;64086;43.220;27.878;2023-08-08T13:32:42;2.45;;;2.08;;
75506;SDS011;64086;43.220;27.878;2023-08-08T13:35:07;3.47;;;2.20;;
75506;SDS011;64086;43.220;27.878;2023-08-08T13:37:33;2.67;;;2.03;;
75506;SDS011;64086;43.220;27.878;2023-08-08T13:39:59;2.70;;;1.98;;
75506;SDS011;64086;43.220;27.878;2023-08-08T13:42:24;2.53;;;2.15;;
75506;SDS011;64086;43.220;27.878;2023-08-08T13:44:50;3.55;;;2.20;;
75506;SDS011;64086;43.220;27.878;2023-08-08T13:47:15;4.28;;;2.20;;
75506;SDS011;64086;43.220;27.878;2023-08-08T13:49:41;4.25;;;2.22;;
75506;SDS011;64086;43.220;27.878;2023-08-08T13:52:06;3.45;;;2.20;;
75506;SDS011;64086;43.220;27.878;2023-08-08T13:54:33;3.70;;;2.13;;
75506;SDS011;64086;43.220;27.878;2023-08-08T13:56:58;2.72;;;2.22;;
75506;SDS011;64086;43.220;27.878;2023-08-08T13:59:24;2.88;;;2.00;;
75506;SDS011;64086;43.220;27.878;2023-08-08T14:01:49;2.47;;;2.00;;
75506;SDS011;64086;43.220;27.878;2023-08-08T14:04:15;2.78;;;2.10;;
75506;SDS011;64086;43.220;27.878;2023-08-08T14:06:40;2.85;;;2.33;;
75506;SDS011;64086;43.220;27.878;2023-08-08T14:09:06;3.17;;;2.20;;
75506;SDS011;64086;43.220;27.878;2023-08-08T14:11:50;2.88;;;2.40;;
75506;SDS011;64086;43.220;27.878;2023-08-08T14:14:15;2.65;;;1.80;;
75506;SDS011;64086;43.220;27.878;2023-08-08T14:16:41;3.25;;;2.00;;
75506;SDS011;64086;43.220;27.878;2023-08-08T14:19:06;3.17;;;2.50;;
75506;SDS011;64086;43.220;27.878;2023-08-08T14:21:33;2.63;;;2.08;;
75506;SDS011;64086;43.220;27.878;2023-08-08T14:23:58;2.55;;;2.10;;
75506;SDS011;64086;43.220;27.878;2023-08-08T14:26:24;3.40;;;2.35;;
75506;SDS011;64086;43.220;27.878;2023-08-08T14:28:49;2.83;;;2.22;;
75506;SDS011;64086;43.220;27.878;2023-08-08T14:31:14;2.70;;;2.10;;
75506;SDS011;64086;43.220;27.878;2023-08-08T14:33:40;2.90;;;2.20;;